sensor_id;sensor_type;location;lat;lon;timestamp;pressure;altitude;pressure_sealevel;temperature;humidity
75188;BME280;63762;51.334;22.108;2023-07-20T00:03:11;100867.90;;;18.59;65.02
75188;BME280;63762;51.334;22.108;2023-07-20T00:13:19;100883.73;;;18.71;65.48
75188;BME280;63762;51.334;22.108;2023-07-20T00:23:21;100884.25;;;18.59;66.79
75188;BME280;63762;51.334;22.108;2023-07-20T00:33:28;100872.81;;;18.39;66.24
75188;BME280;63762;51.334;22.108;2023-07-20T00:43:36;100853.40;;;18.42;66.36
75188;BME280;63762;51.334;22.108;2023-07-20T00:53:42;100833.84;;;18.39;66.33
75188;BME280;63762;51.334;22.108;2023-07-20T01:03:49;100834.48;;;18.33;66.29
75188;BME280;63762;51.334;22.108;2023-07-20T01:13:57;100830.01;;;18.08;66.97
75188;BME280;63762;51.334;22.108;2023-07-20T01:34:20;100834.70;;;17.73;66.93
75188;BME280;63762;51.334;22.108;2023-07-20T01:44:23;100841.13;;;17.72;67.55
75188;BME280;63762;51.334;22.108;2023-07-20T01:54:25;100852.67;;;17.66;67.61
75188;BME280;63762;51.334;22.108;2023-07-20T02:04:32;100849.61;;;17.61;67.42
75188;BME280;63762;51.334;22.108;2023-07-20T02:14:39;100847.88;;;17.60;68.27
75188;BME280;63762;51.334;22.108;2023-07-20T02:24:47;100843.80;;;17.56;68.75
75188;BME280;63762;51.334;22.108;2023-07-20T02:34:53;100843.13;;;17.54;69.61
75188;BME280;63762;51.334;22.108;2023-07-20T02:45:05;100845.85;;;17.54;70.08
75188;BME280;63762;51.334;22.108;2023-07-20T02:55:08;100854.68;;;17.56;70.38
75188;BME280;63762;51.334;22.108;2023-07-20T03:05:15;100836.88;;;17.70;71.24
75188;BME280;63762;51.334;22.108;2023-07-20T03:15:22;100838.46;;;17.81;71.15
75188;BME280;63762;51.334;22.108;2023-07-20T03:25:29;100844.60;;;17.91;72.09
75188;BME280;63762;51.334;22.108;2023-07-20T03:35:36;100844.28;;;18.02;73.09
75188;BME280;63762;51.334;22.108;2023-07-20T03:45:43;100853.59;;;17.83;74.36
75188;BME280;63762;51.334;22.108;2023-07-20T03:55:52;100838.02;;;17.51;74.89
75188;BME280;63762;51.334;22.108;2023-07-20T04:05:57;100856.25;;;17.59;76.58
75188;BME280;63762;51.334;22.108;2023-07-20T04:16:05;100874.98;;;17.70;76.92
75188;BME280;63762;51.334;22.108;2023-07-20T04:26:12;100887.38;;;17.64;77.17
75188;BME280;63762;51.334;22.108;2023-07-20T04:36:19;100949.59;;;17.59;77.06
75188;BME280;63762;51.334;22.108;2023-07-20T04:46:27;100937.52;;;17.36;77.44
75188;BME280;63762;51.334;22.108;2023-07-20T04:56:33;100987.11;;;17.30;77.67
75188;BME280;63762;51.334;22.108;2023-07-20T05:06:40;100978.08;;;16.87;78.22
75188;BME280;63762;51.334;22.108;2023-07-20T05:16:47;100986.30;;;16.60;75.14
75188;BME280;63762;51.334;22.108;2023-07-20T05:26:54;101001.21;;;16.56;74.46
75188;BME280;63762;51.334;22.108;2023-07-20T05:37:02;101001.11;;;16.48;74.57
75188;BME280;63762;51.334;22.108;2023-07-20T05:47:09;101023.67;;;16.21;75.84
75188;BME280;63762;51.334;22.108;2023-07-20T05:57:16;101037.84;;;16.15;76.49
75188;BME280;63762;51.334;22.108;2023-07-20T06:07:23;101031.43;;;16.16;77.69
75188;BME280;63762;51.334;22.108;2023-07-20T06:17:30;101017.41;;;16.21;77.64
75188;BME280;63762;51.334;22.108;2023-07-20T06:27:37;101001.57;;;16.16;78.31
75188;BME280;63762;51.334;22.108;2023-07-20T06:37:44;101011.16;;;16.11;78.48
75188;BME280;63762;51.334;22.108;2023-07-20T06:47:52;101068.63;;;16.06;79.18
75188;BME280;63762;51.334;22.108;2023-07-20T06:57:58;101068.71;;;16.14;79.30
75188;BME280;63762;51.334;22.108;2023-07-20T07:08:06;101049.11;;;16.20;78.86
75188;BME280;63762;51.334;22.108;2023-07-20T07:18:13;101073.59;;;16.47;79.57
75188;BME280;63762;51.334;22.108;2023-07-20T07:28:20;101066.42;;;16.73;78.49
75188;BME280;63762;51.334;22.108;2023-07-20T07:38:27;101063.66;;;16.83;78.21
75188;BME280;63762;51.334;22.108;2023-07-20T07:48:35;101062.32;;;16.87;77.68
75188;BME280;63762;51.334;22.108;2023-07-20T07:58:41;101073.78;;;17.08;77.67
75188;BME280;63762;51.334;22.108;2023-07-20T08:08:48;101074.85;;;17.32;77.23
75188;BME280;63762;51.334;22.108;2023-07-20T08:18:55;101094.06;;;17.48;76.82
75188;BME280;63762;51.334;22.108;2023-07-20T08:29:03;101106.16;;;17.71;75.96
75188;BME280;63762;51.334;22.108;2023-07-20T08:39:10;101106.63;;;17.93;74.79
75188;BME280;63762;51.334;22.108;2023-07-20T08:49:19;101119.61;;;17.99;74.87
75188;BME280;63762;51.334;22.108;2023-07-20T08:59:24;101143.57;;;18.38;75.14
75188;BME280;63762;51.334;22.108;2023-07-20T09:09:31;101145.43;;;18.71;72.14
75188;BME280;63762;51.334;22.108;2023-07-20T09:19:38;101160.34;;;18.93;72.55
75188;BME280;63762;51.334;22.108;2023-07-20T09:29:52;101162.50;;;18.81;71.17
75188;BME280;63762;51.334;22.108;2023-07-20T09:39:53;101162.64;;;18.72;72.39
75188;BME280;63762;51.334;22.108;2023-07-20T09:50:00;101181.57;;;18.73;72.59
75188;BME280;63762;51.334;22.108;2023-07-20T10:00:07;101194.39;;;18.81;72.48
75188;BME280;63762;51.334;22.108;2023-07-20T10:10:16;101187.09;;;18.89;72.02
75188;BME280;63762;51.334;22.108;2023-07-20T10:20:21;101199.42;;;19.01;71.44
75188;BME280;63762;51.334;22.108;2023-07-20T10:30:28;101183.41;;;19.64;67.07
75188;BME280;63762;51.334;22.108;2023-07-20T10:40:39;101181.38;;;19.90;66.12
75188;BME280;63762;51.334;22.108;2023-07-20T10:50:43;101178.25;;;20.41;64.29
75188;BME280;63762;51.334;22.108;2023-07-20T11:21:16;101190.86;;;21.13;61.71
75188;BME280;63762;51.334;22.108;2023-07-20T11:31:18;101175.88;;;21.31;58.39
75188;BME280;63762;51.334;22.108;2023-07-20T11:41:19;101177.11;;;20.82;59.86
75188;BME280;63762;51.334;22.108;2023-07-20T11:51:29;101189.15;;;20.57;61.47
75188;BME280;63762;51.334;22.108;2023-07-20T12:01:32;101175.41;;;20.81;60.35
75188;BME280;63762;51.334;22.108;2023-07-20T12:11:39;101180.54;;;20.84;61.21
75188;BME280;63762;51.334;22.108;2023-07-20T12:21:46;101177.80;;;20.84;61.97
75188;BME280;63762;51.334;22.108;2023-07-20T12:31:54;101161.40;;;20.76;60.56
75188;BME280;63762;51.334;22.108;2023-07-20T12:42:01;101169.02;;;21.35;58.56
75188;BME280;63762;51.334;22.108;2023-07-20T12:52:08;101147.98;;;22.04;55.20
75188;BME280;63762;51.334;22.108;2023-07-20T13:02:15;101136.15;;;22.69;54.99
75188;BME280;63762;51.334;22.108;2023-07-20T13:12:22;101122.68;;;22.89;54.96
75188;BME280;63762;51.334;22.108;2023-07-20T13:22:29;101115.70;;;22.72;53.17
75188;BME280;63762;51.334;22.108;2023-07-20T13:32:36;101124.14;;;22.56;54.52
75188;BME280;63762;51.334;22.108;2023-07-20T13:42:43;101105.84;;;22.34;54.82
75188;BME280;63762;51.334;22.108;2023-07-20T13:52:51;101102.43;;;22.32;54.51
75188;BME280;63762;51.334;22.108;2023-07-20T14:02:58;101099.63;;;22.69;55.03
75188;BME280;63762;51.334;22.108;2023-07-20T14:16:13;101114.36;;;22.97;53.79
75188;BME280;63762;51.334;22.108;2023-07-20T14:26:20;101107.10;;;23.10;51.54
75188;BME280;63762;51.334;22.108;2023-07-20T14:36:27;101110.48;;;22.77;53.56
75188;BME280;63762;51.334;22.108;2023-07-20T14:46:34;101124.77;;;22.29;54.29
75188;BME280;63762;51.334;22.108;2023-07-20T14:56:50;101126.97;;;21.96;55.81
75188;BME280;63762;51.334;22.108;2023-07-20T15:06:53;101164.77;;;21.55;57.80
75188;BME280;63762;51.334;22.108;2023-07-20T15:16:56;101192.43;;;21.07;62.03
75188;BME280;63762;51.334;22.108;2023-07-20T15:27:03;101195.20;;;20.37;66.65
75188;BME280;63762;51.334;22.108;2023-07-20T15:37:10;101183.77;;;19.77;69.41
75188;BME280;63762;51.334;22.108;2023-07-20T15:47:17;101154.90;;;19.74;68.04
75188;BME280;63762;51.334;22.108;2023-07-20T15:57:24;101167.55;;;19.92;69.43
75188;BME280;63762;51.334;22.108;2023-07-20T16:07:31;101169.07;;;20.18;67.98
75188;BME280;63762;51.334;22.108;2023-07-20T16:17:38;101171.39;;;20.53;67.92
75188;BME280;63762;51.334;22.108;2023-07-20T16:27:45;101157.54;;;21.09;65.81
75188;BME280;63762;51.334;22.108;2023-07-20T16:37:55;101156.85;;;21.60;64.61
75188;BME280;63762;51.334;22.108;2023-07-20T16:48:00;101178.12;;;22.04;61.24
75188;BME280;63762;51.334;22.108;2023-07-20T16:58:07;101178.84;;;25.03;49.94
75188;BME280;63762;51.334;22.108;2023-07-20T17:08:14;101183.91;;;23.54;54.74
75188;BME280;63762;51.334;22.108;2023-07-20T17:18:21;101187.30;;;22.11;57.76
75188;BME280;63762;51.334;22.108;2023-07-20T17:28:28;101195.45;;;21.20;60.33
75188;BME280;63762;51.334;22.108;2023-07-20T17:38:35;101191.84;;;20.73;61.73
75188;BME280;63762;51.334;22.108;2023-07-20T17:48:42;101195.38;;;20.35;63.06
75188;BME280;63762;51.334;22.108;2023-07-20T17:58:50;101210.37;;;19.83;63.50
75188;BME280;63762;51.334;22.108;2023-07-20T18:08:57;101218.13;;;19.30;63.69
75188;BME280;63762;51.334;22.108;2023-07-20T18:19:04;101242.44;;;18.82;65.57
75188;BME280;63762;51.334;22.108;2023-07-20T18:29:11;101275.21;;;18.39;67.02
75188;BME280;63762;51.334;22.108;2023-07-20T18:39:18;101285.86;;;18.15;68.72
75188;BME280;63762;51.334;22.108;2023-07-20T18:49:25;101299.16;;;18.18;68.47
75188;BME280;63762;51.334;22.108;2023-07-20T18:59:33;101297.22;;;18.10;68.73
75188;BME280;63762;51.334;22.108;2023-07-20T19:09:39;101304.91;;;17.79;69.92
75188;BME280;63762;51.334;22.108;2023-07-20T19:19:46;101306.21;;;17.58;71.60
75188;BME280;63762;51.334;22.108;2023-07-20T19:29:54;101314.83;;;17.17;73.18
75188;BME280;63762;51.334;22.108;2023-07-20T19:40:01;101312.09;;;17.26;73.06
75188;BME280;63762;51.334;22.108;2023-07-20T19:50:08;101320.24;;;17.26;72.68
75188;BME280;63762;51.334;22.108;2023-07-20T20:00:16;101311.30;;;17.07;73.13
75188;BME280;63762;51.334;22.108;2023-07-20T20:10:22;101297.39;;;16.73;74.21
75188;BME280;63762;51.334;22.108;2023-07-20T20:20:32;101312.72;;;16.74;73.99
75188;BME280;63762;51.334;22.108;2023-07-20T20:30:37;101325.59;;;16.72;73.61
75188;BME280;63762;51.334;22.108;2023-07-20T20:40:45;101327.86;;;16.77;73.84
75188;BME280;63762;51.334;22.108;2023-07-20T20:50:51;101327.43;;;16.81;73.51
75188;BME280;63762;51.334;22.108;2023-07-20T21:00:59;101345.15;;;16.85;73.18
75188;BME280;63762;51.334;22.108;2023-07-20T21:11:05;101360.04;;;16.81;72.93
75188;BME280;63762;51.334;22.108;2023-07-20T21:21:12;101359.75;;;16.75;73.06
75188;BME280;63762;51.334;22.108;2023-07-20T21:31:19;101367.65;;;16.68;73.18
75188;BME280;63762;51.334;22.108;2023-07-20T21:41:26;101375.50;;;16.62;73.11
75188;BME280;63762;51.334;22.108;2023-07-20T21:51:33;101382.23;;;16.58;73.14
75188;BME280;63762;51.334;22.108;2023-07-20T22:01:41;101399.98;;;16.52;73.04
75188;BME280;63762;51.334;22.108;2023-07-20T22:11:47;101402.39;;;16.46;73.59
75188;BME280;63762;51.334;22.108;2023-07-20T22:21:55;101394.95;;;16.38;73.84
75188;BME280;63762;51.334;22.108;2023-07-20T22:32:04;101399.20;;;16.31;73.17
75188;BME280;63762;51.334;22.108;2023-07-20T22:42:09;101404.06;;;16.18;74.12
75188;BME280;63762;51.334;22.108;2023-07-20T22:52:16;101416.48;;;16.02;75.51
75188;BME280;63762;51.334;22.108;2023-07-20T23:02:24;101416.39;;;15.73;76.37
75188;BME280;63762;51.334;22.108;2023-07-20T23:12:30;101404.52;;;15.64;76.55
75188;BME280;63762;51.334;22.108;2023-07-20T23:22:37;101405.82;;;15.70;75.82
75188;BME280;63762;51.334;22.108;2023-07-20T23:32:44;101380.84;;;15.76;75.08
75188;BME280;63762;51.334;22.108;2023-07-20T23:42:52;101395.15;;;15.78;75.56
75188;BME280;63762;51.334;22.108;2023-07-20T23:52:59;101390.00;;;15.75;76.90
